Terminal Aerodrome Forecast
Issued by NWS Buffalo, NY

Home | Current Version | Previous Version | Text Only | Print | Product List | Glossary On
Versions: 1 2 3 4 5 6 7 8 9 10 11 12 13 14 15 16 17 18 19 20 21 22 23 24 25 26 27 28
000
FTUS41 KBUF 281900 AAA
TAFART
TAF AMD
KART 281910Z 2819/2918 01011G20KT P6SM -RA OVC015
     FM282300 01009KT P6SM VCSH OVC025
     FM290200 30005KT P6SM OVC045
     FM290700 31006KT P6SM SCT250=

USA.gov is the U.S. government's official web portal to all federal, state and local government web resources and services.